NO-0041 weather

Spydeberg Airstrip
Spydeberg, Østfold, Norway

Public forecast

Using degrees Celsius for public forecast. Weather courtesy of forecast.io.

Closest aviation weather report (METAR) to Spydeberg Airstrip

Closest report is Moss Airport, Rygge, 19.9 nm (36.9 km) SSW. Retrieved 2020/07/14 22:20 UTC (11 minutes ago):

ENRY 142220Z 13007KT 9999 FEW007 BKN018 15/14 Q1009

Closest aviation forecast (TAF) to Spydeberg Airstrip

Closest forecast is Moss Airport, Rygge, 19.9 nm (36.9 km) SSW. Retrieved 2020/07/14 18:57 UTC (4 hours ago):

TAF ENRY 141700Z 1418/1518 16008KT 9999 FEW008 BKN020 TEMPO 1418/1514 4000 SHRA BR BKN008 SCT020CB PROB30 TEMPO 1419/1423 2000 TSRA